Canso, Canada
Current Conditions -  °F | °C
As of 12:00 AM on Thursday 23 Oct 2014 (Local Time) from CYPD Reporting Station
Overcast Overcast  
Wind Chill: 50°   Ceiling: 1300
Heat Index: 50°   Visibility: 9mi
Dew Point: 46°   Wind: 13mph
Humidity: 87%   Direction: 80°E
Pressure: 30.28"   Gusts: 21mph
Location:  45.34°N, 61°W
Report Text: CYPD 230300Z AUTO 08011G18KT 9SM OVC013 10/08 A3028 RMK SLP255
Loading
Personal Weather Stations






























Interactive Weather Map New forecast layout! Learn more

10-Day Weather Forecast

Advertisements
Track Severe Weather on mobile